createdAt,value
2019-03-15T00:01:37.506Z,6.51
2019-03-15T00:06:34.668Z,6.56
2019-03-15T00:11:32.429Z,6.64
2019-03-15T00:16:29.724Z,6.57
2019-03-15T00:21:27.307Z,6.48
2019-03-15T00:26:24.371Z,6.66
2019-03-15T00:31:21.795Z,6.74
2019-03-15T00:36:19.197Z,6.82
2019-03-15T00:41:16.375Z,6.67
2019-03-15T00:46:13.387Z,6.91
2019-03-15T00:51:10.642Z,6.88
2019-03-15T00:56:07.776Z,6.92
2019-03-15T01:01:05.193Z,7.02
2019-03-15T01:06:02.234Z,7.23
2019-03-15T01:10:59.419Z,7.01
2019-03-15T01:15:56.492Z,7.10
2019-03-15T01:20:53.637Z,7.24
2019-03-15T01:25:50.576Z,6.96
2019-03-15T01:30:48.182Z,7.05
2019-03-15T01:35:45.203Z,6.98
2019-03-15T01:40:42.376Z,6.77
2019-03-15T01:45:39.464Z,6.69
2019-03-15T01:50:36.746Z,6.67
2019-03-15T01:55:33.992Z,6.53
2019-03-15T02:00:31.109Z,6.53
2019-03-15T02:05:30.141Z,6.51
2019-03-15T02:10:27.523Z,6.63
2019-03-15T02:15:24.966Z,6.54
2019-03-15T02:20:22.059Z,6.27
2019-03-15T02:25:19.148Z,6.30
2019-03-15T02:30:16.664Z,6.12
2019-03-15T02:35:13.948Z,6.43
2019-03-15T02:40:13.222Z,6.39
2019-03-15T02:45:10.489Z,6.53
2019-03-15T02:50:08.287Z,6.36
2019-03-15T02:55:06.902Z,6.29
2019-03-15T03:00:07.243Z,6.21
2019-03-15T03:05:08.291Z,6.30
2019-03-15T03:10:08.869Z,6.28
2019-03-15T03:15:07.122Z,6.23
2019-03-15T03:20:06.509Z,6.24
2019-03-15T03:25:04.897Z,6.29
2019-03-15T03:30:02.418Z,6.44
2019-03-15T03:34:59.452Z,6.44
2019-03-15T03:39:56.577Z,6.28
2019-03-15T03:44:53.537Z,6.26
2019-03-15T03:49:50.570Z,6.31
2019-03-15T03:54:47.569Z,6.27
2019-03-15T03:59:44.632Z,5.68
2019-03-15T04:04:43.136Z,6.01
2019-03-15T04:09:40.300Z,5.90
2019-03-15T04:14:38.249Z,5.67
2019-03-15T04:19:35.365Z,5.73
2019-03-15T04:24:32.349Z,5.67
2019-03-15T04:29:29.438Z,5.81
2019-03-15T04:34:28.325Z,5.93
2019-03-15T04:39:25.695Z,5.83
2019-03-15T04:44:22.666Z,6.10
2019-03-15T04:49:19.716Z,6.20
2019-03-15T04:54:16.693Z,5.88
2019-03-15T04:59:13.773Z,6.17
2019-03-15T05:04:10.740Z,6.23
2019-03-15T05:09:07.772Z,6.13
2019-03-15T05:14:04.874Z,6.20
2019-03-15T05:19:01.902Z,6.08
2019-03-15T05:23:58.857Z,6.11
2019-03-15T05:28:56.030Z,6.19
2019-03-15T05:33:53.013Z,6.29
2019-03-15T05:38:50.124Z,6.26
2019-03-15T05:43:47.079Z,6.06
2019-03-15T05:48:44.525Z,5.98
2019-03-15T05:53:41.614Z,6.09
2019-03-15T05:58:38.642Z,6.11
2019-03-15T06:03:47.872Z,6.23
2019-03-15T06:08:34.816Z,6.23
2019-03-15T06:13:32.941Z,6.38
2019-03-15T06:18:30.113Z,6.55
2019-03-15T06:23:27.283Z,6.94
2019-03-15T06:28:24.301Z,7.19
2019-03-15T06:33:21.241Z,7.09
2019-03-15T06:38:18.719Z,7.39
2019-03-15T06:43:15.805Z,7.24
2019-03-15T06:48:12.905Z,7.22
2019-03-15T06:53:10.536Z,7.01
2019-03-15T06:58:07.651Z,7.02
2019-03-15T07:03:05.849Z,6.88
2019-03-15T07:08:03.522Z,6.78
2019-03-15T07:13:00.669Z,6.93
2019-03-15T07:17:57.733Z,7.49
2019-03-15T07:22:54.903Z,8.23
2019-03-15T07:27:52.813Z,8.03
2019-03-15T07:32:49.840Z,8.61
2019-03-15T07:37:47.538Z,8.75
2019-03-15T07:42:47.024Z,8.72
2019-03-15T07:47:44.288Z,8.87
2019-03-15T07:52:42.562Z,8.55
2019-03-15T07:57:41.536Z,8.51
2019-03-15T08:02:38.558Z,9.06
2019-03-15T08:07:44.210Z,9.32
2019-03-15T08:12:39.420Z,9.31
2019-03-15T08:17:37.309Z,8.25
2019-03-15T08:22:34.775Z,8.26
2019-03-15T08:27:33.747Z,8.19
2019-03-15T08:32:30.956Z,7.85
2019-03-15T08:37:27.986Z,7.28
2019-03-15T08:42:26.123Z,7.63
2019-03-15T08:47:24.448Z,7.62
2019-03-15T08:52:23.155Z,7.71
2019-03-15T08:57:34.771Z,7.45
2019-03-15T09:02:29.916Z,7.53
2019-03-15T09:07:29.048Z,7.90
2019-03-15T09:12:26.174Z,7.85
2019-03-15T09:17:25.273Z,7.95
2019-03-15T09:22:22.457Z,8.09
2019-03-15T09:27:19.589Z,7.90
2019-03-15T09:32:21.859Z,8.00
2019-03-15T09:37:23.843Z,8.09
2019-03-15T09:42:25.392Z,7.97
2019-03-15T09:47:24.130Z,7.91
2019-03-15T09:52:25.229Z,7.83
2019-03-15T09:57:24.287Z,7.62
2019-03-15T10:02:30.104Z,7.48
2019-03-15T10:07:20.554Z,7.40
2019-03-15T10:12:20.649Z,7.41
2019-03-15T10:17:17.727Z,7.43
2019-03-15T10:22:14.813Z,7.36
2019-03-15T10:27:11.832Z,7.58
2019-03-15T10:32:09.059Z,7.78
2019-03-15T10:37:06.422Z,7.93
2019-03-15T10:42:04.694Z,7.98
2019-03-15T10:47:01.828Z,8.09
2019-03-15T10:51:58.887Z,8.14
2019-03-15T10:56:56.340Z,7.99
2019-03-15T11:01:56.816Z,8.04
2019-03-15T11:06:57.676Z,8.11
2019-03-15T11:11:54.800Z,7.99
2019-03-15T11:16:53.848Z,8.13
2019-03-15T11:21:51.120Z,8.26
2019-03-15T11:26:48.328Z,8.58
2019-03-15T11:31:48.490Z,8.64
2019-03-15T11:36:57.888Z,8.65
2019-03-15T11:41:47.635Z,8.64
2019-03-15T11:46:45.969Z,8.95
2019-03-15T11:51:45.149Z,9.13
2019-03-15T11:56:42.230Z,9.27
2019-03-15T12:01:39.690Z,9.54
2019-03-15T12:06:36.914Z,9.95
2019-03-15T12:11:33.968Z,10.19
2019-03-15T12:16:32.989Z,10.28
2019-03-15T12:21:30.572Z,10.13
2019-03-15T12:26:39.682Z,10.14
2019-03-15T12:31:26.584Z,10.14
2019-03-15T12:36:23.717Z,9.89
2019-03-15T12:41:24.649Z,9.35
2019-03-15T12:46:21.102Z,9.44
2019-03-15T12:51:31.705Z,9.26
2019-03-15T12:56:21.594Z,9.86
2019-03-15T13:01:22.568Z,10.12
2019-03-15T13:06:20.941Z,10.47
2019-03-15T13:11:19.314Z,10.45
2019-03-15T13:16:16.464Z,10.02
2019-03-15T13:21:15.108Z,9.92
2019-03-15T13:26:14.061Z,9.92
2019-03-15T13:31:11.169Z,10.40
2019-03-15T13:36:08.174Z,11.02
2019-03-15T13:41:06.623Z,11.08
2019-03-15T13:46:06.696Z,11.22
2019-03-15T13:51:11.748Z,11.48
2019-03-15T13:56:04.680Z,11.58
2019-03-15T14:01:03.840Z,11.65
2019-03-15T14:06:01.019Z,11.54
2019-03-15T14:11:00.252Z,11.53
2019-03-15T14:16:01.611Z,11.67
2019-03-15T14:21:00.104Z,11.54
2019-03-15T14:26:11.115Z,11.71
2019-03-15T14:30:59.820Z,11.58
2019-03-15T14:35:56.939Z,11.60
2019-03-15T14:40:53.953Z,11.73
2019-03-15T14:45:51.143Z,11.78
2019-03-15T14:50:48.235Z,11.22
2019-03-15T14:55:46.505Z,10.69
2019-03-15T15:00:45.548Z,10.65
2019-03-15T15:05:47.088Z,10.65
2019-03-15T15:10:41.588Z,10.60
2019-03-15T15:15:41.830Z,10.52
2019-03-15T15:20:39.689Z,10.73
2019-03-15T15:25:36.637Z,10.46
2019-03-15T15:30:33.669Z,10.26
2019-03-15T15:35:33.324Z,10.19
2019-03-15T15:40:30.837Z,10.09
2019-03-15T15:45:29.876Z,9.78
2019-03-15T15:50:27.110Z,9.42
2019-03-15T15:55:24.252Z,9.42
2019-03-15T16:00:21.403Z,9.30
2019-03-15T16:05:20.742Z,9.13
2019-03-15T16:10:18.669Z,9.18
2019-03-15T16:15:20.593Z,8.92
2019-03-15T16:20:18.006Z,8.74
2019-03-15T16:25:16.527Z,8.70
2019-03-15T16:30:21.934Z,8.59
2019-03-15T16:35:19.363Z,8.64
2019-03-15T16:40:18.055Z,8.18
2019-03-15T16:45:29.580Z,8.13
2019-03-15T16:50:26.662Z,8.14
2019-03-15T16:55:23.846Z,8.23
2019-03-15T17:00:20.965Z,7.90
2019-03-15T17:05:21.027Z,7.99
2019-03-15T17:10:19.013Z,7.70
2019-03-15T17:15:28.659Z,7.62
2019-03-15T17:20:25.868Z,7.52
2019-03-15T17:25:24.310Z,7.41
2019-03-15T17:30:21.738Z,7.22
2019-03-15T17:35:20.715Z,7.08
2019-03-15T17:40:19.471Z,6.96
2019-03-15T17:45:16.758Z,6.85
2019-03-15T17:50:20.008Z,6.72
2019-03-15T17:55:17.995Z,6.56
2019-03-15T18:00:23.253Z,6.65
2019-03-15T18:05:20.594Z,6.40
2019-03-15T18:10:19.759Z,6.49
2019-03-15T18:15:18.306Z,6.19
2019-03-15T18:20:15.720Z,6.13
2019-03-15T18:25:13.000Z,6.20
2019-03-15T18:30:18.004Z,6.23
2019-03-15T18:35:15.242Z,6.41
2019-03-15T18:40:19.416Z,6.67
2019-03-15T18:50:32.616Z,6.84
2019-03-15T18:55:29.781Z,6.73
2019-03-15T19:00:27.038Z,6.62
2019-03-15T19:05:24.549Z,6.68
2019-03-15T19:15:29.152Z,6.69
2019-03-15T19:20:26.326Z,6.57
2019-03-15T19:25:23.812Z,6.67
2019-03-15T19:30:21.246Z,6.66
2019-03-15T19:35:19.370Z,6.98
2019-03-15T19:40:18.267Z,6.82
2019-03-15T19:45:16.277Z,6.81
2019-03-15T19:50:15.440Z,6.66
2019-03-15T19:55:13.728Z,6.77
2019-03-15T20:00:18.664Z,6.68
2019-03-15T20:05:16.104Z,6.80
2019-03-15T20:10:16.898Z,6.62
2019-03-15T20:15:15.855Z,6.70
2019-03-15T20:20:17.806Z,6.85
2019-03-15T20:25:15.903Z,6.79
2019-03-15T20:30:26.019Z,6.80
2019-03-15T20:35:19.056Z,6.86
2019-03-15T20:40:17.738Z,6.65
2019-03-15T20:45:23.181Z,6.97
2019-03-15T20:50:21.630Z,6.81
2019-03-15T20:55:18.966Z,6.96
2019-03-15T21:00:34.745Z,6.69
2019-03-15T21:05:21.807Z,6.78
2019-03-15T21:10:19.738Z,6.76
2019-03-15T21:15:17.964Z,6.79
2019-03-15T21:20:22.389Z,6.79
2019-03-15T21:25:18.061Z,6.88
2019-03-15T21:30:18.470Z,6.96
2019-03-15T21:35:15.970Z,6.95
2019-03-15T21:40:17.905Z,7.11
2019-03-15T21:45:14.945Z,7.20
2019-03-15T21:50:14.368Z,7.32
2019-03-15T21:55:11.558Z,7.34
2019-03-15T22:00:16.522Z,7.50
2019-03-15T22:05:13.574Z,7.32
2019-03-15T22:10:13.444Z,7.46
2019-03-15T22:15:12.030Z,7.63
2019-03-15T22:20:14.908Z,7.63
2019-03-15T22:25:12.029Z,7.53
2019-03-15T22:30:13.149Z,7.49
2019-03-15T22:35:10.424Z,7.54
2019-03-15T22:40:10.977Z,7.54
2019-03-15T22:45:10.787Z,7.63
2019-03-15T22:50:12.483Z,7.22
2019-03-15T22:55:10.309Z,7.68
2019-03-15T23:00:13.131Z,7.71
2019-03-15T23:05:10.204Z,7.83
2019-03-15T23:10:09.318Z,7.96
2019-03-15T23:15:08.561Z,7.88
2019-03-15T23:20:11.390Z,7.93
2019-03-15T23:25:09.534Z,7.81
2019-03-15T23:30:13.141Z,7.89
2019-03-15T23:35:10.164Z,7.97
2019-03-15T23:40:10.073Z,8.06
2019-03-15T23:45:09.052Z,8.17
2019-03-15T23:50:16.495Z,7.95
2019-03-15T23:55:13.539Z,8.12
